sensor_id;sensor_type;location;lat;lon;timestamp;temperature;humidity
21648;DHT22;10985;54.182;7.890;2022-09-09T07:44:39;17.30;99.90
21648;DHT22;10985;54.182;7.890;2022-09-09T07:47:05;17.30;99.90
21648;DHT22;10985;54.182;7.890;2022-09-09T07:49:31;17.30;99.90
21648;DHT22;10985;54.182;7.890;2022-09-09T07:51:57;17.40;99.90
21648;DHT22;10985;54.182;7.890;2022-09-09T07:54:23;17.50;99.90
21648;DHT22;10985;54.182;7.890;2022-09-09T07:56:50;17.60;99.90
21648;DHT22;10985;54.182;7.890;2022-09-09T07:59:16;17.70;99.90
21648;DHT22;10985;54.182;7.890;2022-09-09T08:01:44;17.90;99.90
21648;DHT22;10985;54.182;7.890;2022-09-09T08:04:15;18.10;99.90
21648;DHT22;10985;54.182;7.890;2022-09-09T08:06:45;18.10;99.90
21648;DHT22;10985;54.182;7.890;2022-09-09T08:09:12;18.30;99.90
21648;DHT22;10985;54.182;7.890;2022-09-09T08:11:39;18.40;99.90
21648;DHT22;10985;54.182;7.890;2022-09-09T08:14:06;18.40;99.90
21648;DHT22;10985;54.182;7.890;2022-09-09T08:16:35;18.50;99.90
21648;DHT22;10985;54.182;7.890;2022-09-09T08:19:02;18.60;99.90
21648;DHT22;10985;54.182;7.890;2022-09-09T08:21:30;18.60;99.90
21648;DHT22;10985;54.182;7.890;2022-09-09T08:23:58;18.70;99.90
21648;DHT22;10985;54.182;7.890;2022-09-09T08:26:26;18.70;99.90
21648;DHT22;10985;54.182;7.890;2022-09-09T08:28:54;18.80;99.90
21648;DHT22;10985;54.182;7.890;2022-09-09T08:31:23;18.70;99.90
21648;DHT22;10985;54.182;7.890;2022-09-09T08:33:49;18.80;99.90
21648;DHT22;10985;54.182;7.890;2022-09-09T08:36:20;18.70;99.90
21648;DHT22;10985;54.182;7.890;2022-09-09T08:38:52;18.70;99.90
21648;DHT22;10985;54.182;7.890;2022-09-09T08:52:35;18.60;99.90
21648;DHT22;10985;54.182;7.890;2022-09-09T08:57:35;18.70;99.90
21648;DHT22;10985;54.182;7.890;2022-09-09T09:00:02;18.90;99.90
21648;DHT22;10985;54.182;7.890;2022-09-09T09:13:23;20.10;99.90
21648;DHT22;10985;54.182;7.890;2022-09-09T09:16:00;20.30;99.90
21648;DHT22;10985;54.182;7.890;2022-09-09T09:18:27;20.50;99.90
21648;DHT22;10985;54.182;7.890;2022-09-09T09:21:04;20.80;99.90
21648;DHT22;10985;54.182;7.890;2022-09-09T09:23:56;21.00;99.90
21648;DHT22;10985;54.182;7.890;2022-09-09T09:26:25;21.40;99.90
21648;DHT22;10985;54.182;7.890;2022-09-09T09:28:55;21.70;99.90
21648;DHT22;10985;54.182;7.890;2022-09-09T09:31:22;22.00;99.90
21648;DHT22;10985;54.182;7.890;2022-09-09T09:33:51;22.30;99.90
21648;DHT22;10985;54.182;7.890;2022-09-09T09:36:18;22.60;99.90
21648;DHT22;10985;54.182;7.890;2022-09-09T09:38:58;22.90;99.90
21648;DHT22;10985;54.182;7.890;2022-09-09T09:41:42;23.20;99.90
21648;DHT22;10985;54.182;7.890;2022-09-09T09:44:27;23.60;99.90
21648;DHT22;10985;54.182;7.890;2022-09-09T09:47:08;23.70;99.90
21648;DHT22;10985;54.182;7.890;2022-09-09T09:49:36;24.20;99.90
21648;DHT22;10985;54.182;7.890;2022-09-09T09:52:03;24.50;99.90
21648;DHT22;10985;54.182;7.890;2022-09-09T09:54:33;24.80;99.90
21648;DHT22;10985;54.182;7.890;2022-09-09T09:57:16;25.10;99.90
21648;DHT22;10985;54.182;7.890;2022-09-09T09:59:42;25.40;99.90
21648;DHT22;10985;54.182;7.890;2022-09-09T10:02:23;25.20;99.90
21648;DHT22;10985;54.182;7.890;2022-09-09T10:05:25;25.10;99.90
21648;DHT22;10985;54.182;7.890;2022-09-09T10:08:08;25.00;99.90
21648;DHT22;10985;54.182;7.890;2022-09-09T10:13:23;24.80;99.90
21648;DHT22;10985;54.182;7.890;2022-09-09T10:16:01;24.70;99.90
21648;DHT22;10985;54.182;7.890;2022-09-09T10:19:01;24.50;99.90
21648;DHT22;10985;54.182;7.890;2022-09-09T10:24:12;24.10;99.90
21648;DHT22;10985;54.182;7.890;2022-09-09T10:27:05;23.80;99.90
21648;DHT22;10985;54.182;7.890;2022-09-09T10:29:54;23.70;99.90
21648;DHT22;10985;54.182;7.890;2022-09-09T10:32:41;23.40;99.90
21648;DHT22;10985;54.182;7.890;2022-09-09T10:35:14;23.10;99.90
21648;DHT22;10985;54.182;7.890;2022-09-09T10:38:04;22.80;99.90
21648;DHT22;10985;54.182;7.890;2022-09-09T10:40:34;22.30;99.90
21648;DHT22;10985;54.182;7.890;2022-09-09T10:46:29;22.10;99.90
21648;DHT22;10985;54.182;7.890;2022-09-09T10:52:16;21.80;99.90
21648;DHT22;10985;54.182;7.890;2022-09-09T10:55:00;21.80;99.90
21648;DHT22;10985;54.182;7.890;2022-09-09T10:57:34;21.80;99.90
21648;DHT22;10985;54.182;7.890;2022-09-09T11:00:06;21.80;99.90
21648;DHT22;10985;54.182;7.890;2022-09-09T11:02:34;21.70;99.90
21648;DHT22;10985;54.182;7.890;2022-09-09T11:05:05;21.60;99.90
21648;DHT22;10985;54.182;7.890;2022-09-09T11:07:44;21.70;99.90
21648;DHT22;10985;54.182;7.890;2022-09-09T11:12:59;21.60;99.90
21648;DHT22;10985;54.182;7.890;2022-09-09T11:15:38;21.60;99.90
21648;DHT22;10985;54.182;7.890;2022-09-09T11:18:08;21.50;99.90
21648;DHT22;10985;54.182;7.890;2022-09-09T11:20:36;21.60;99.90
21648;DHT22;10985;54.182;7.890;2022-09-09T11:23:06;21.50;99.90
21648;DHT22;10985;54.182;7.890;2022-09-09T11:25:38;21.40;99.90
21648;DHT22;10985;54.182;7.890;2022-09-09T11:34:15;21.70;99.90
21648;DHT22;10985;54.182;7.890;2022-09-09T11:37:03;21.80;99.90
21648;DHT22;10985;54.182;7.890;2022-09-09T11:39:44;22.00;99.90
21648;DHT22;10985;54.182;7.890;2022-09-09T11:44:41;22.20;99.90
21648;DHT22;10985;54.182;7.890;2022-09-09T11:47:39;22.40;99.90
21648;DHT22;10985;54.182;7.890;2022-09-09T11:52:45;22.60;99.90
21648;DHT22;10985;54.182;7.890;2022-09-09T11:55:29;22.70;99.90
21648;DHT22;10985;54.182;7.890;2022-09-09T11:58:01;22.70;99.90
21648;DHT22;10985;54.182;7.890;2022-09-09T12:01:12;22.70;99.90
21648;DHT22;10985;54.182;7.890;2022-09-09T12:03:46;22.80;99.90
21648;DHT22;10985;54.182;7.890;2022-09-09T12:06:28;22.70;99.90
21648;DHT22;10985;54.182;7.890;2022-09-09T12:11:42;22.50;99.90
21648;DHT22;10985;54.182;7.890;2022-09-09T12:14:23;22.50;99.90
21648;DHT22;10985;54.182;7.890;2022-09-09T12:17:19;22.50;99.90
21648;DHT22;10985;54.182;7.890;2022-09-09T12:19:44;22.40;99.90
21648;DHT22;10985;54.182;7.890;2022-09-09T12:22:25;22.30;99.90
21648;DHT22;10985;54.182;7.890;2022-09-09T12:25:18;22.30;99.90
21648;DHT22;10985;54.182;7.890;2022-09-09T12:30:29;22.00;99.90
21648;DHT22;10985;54.182;7.890;2022-09-09T12:33:12;22.00;99.90
21648;DHT22;10985;54.182;7.890;2022-09-09T12:35:38;22.10;99.90
21648;DHT22;10985;54.182;7.890;2022-09-09T12:38:06;22.00;99.90
21648;DHT22;10985;54.182;7.890;2022-09-09T12:40:37;21.90;99.90
21648;DHT22;10985;54.182;7.890;2022-09-09T12:43:20;22.00;99.90
21648;DHT22;10985;54.182;7.890;2022-09-09T12:45:47;22.00;99.90
21648;DHT22;10985;54.182;7.890;2022-09-09T12:48:18;22.10;99.90
21648;DHT22;10985;54.182;7.890;2022-09-09T12:50:49;22.30;99.90
21648;DHT22;10985;54.182;7.890;2022-09-09T12:55:59;22.70;99.90
21648;DHT22;10985;54.182;7.890;2022-09-09T12:58:26;22.80;99.90
21648;DHT22;10985;54.182;7.890;2022-09-09T13:00:55;23.00;99.90
21648;DHT22;10985;54.182;7.890;2022-09-09T13:03:24;23.10;99.90
21648;DHT22;10985;54.182;7.890;2022-09-09T13:05:53;23.20;99.90
21648;DHT22;10985;54.182;7.890;2022-09-09T13:08:20;23.30;99.90
21648;DHT22;10985;54.182;7.890;2022-09-09T13:10:56;23.40;99.90
21648;DHT22;10985;54.182;7.890;2022-09-09T13:13:50;23.50;99.90
21648;DHT22;10985;54.182;7.890;2022-09-09T13:16:30;23.60;99.90
21648;DHT22;10985;54.182;7.890;2022-09-09T13:19:15;23.80;99.90
21648;DHT22;10985;54.182;7.890;2022-09-09T13:21:42;24.10;99.90
21648;DHT22;10985;54.182;7.890;2022-09-09T13:24:33;24.30;99.90
21648;DHT22;10985;54.182;7.890;2022-09-09T13:27:02;24.50;99.90
21648;DHT22;10985;54.182;7.890;2022-09-09T13:29:28;24.70;99.90
21648;DHT22;10985;54.182;7.890;2022-09-09T13:32:04;24.90;99.90
21648;DHT22;10985;54.182;7.890;2022-09-09T13:34:34;25.10;99.90
21648;DHT22;10985;54.182;7.890;2022-09-09T13:37:24;25.20;99.90
21648;DHT22;10985;54.182;7.890;2022-09-09T13:39:54;25.20;99.90
21648;DHT22;10985;54.182;7.890;2022-09-09T13:42:28;25.30;99.90
21648;DHT22;10985;54.182;7.890;2022-09-09T13:44:55;25.30;99.90
21648;DHT22;10985;54.182;7.890;2022-09-09T13:47:28;25.30;99.90
21648;DHT22;10985;54.182;7.890;2022-09-09T13:49:55;25.20;99.90
21648;DHT22;10985;54.182;7.890;2022-09-09T13:52:21;25.20;99.90
21648;DHT22;10985;54.182;7.890;2022-09-09T13:54:49;25.10;99.90
21648;DHT22;10985;54.182;7.890;2022-09-09T13:57:25;25.00;99.90
21648;DHT22;10985;54.182;7.890;2022-09-09T13:59:52;25.00;99.90
21648;DHT22;10985;54.182;7.890;2022-09-09T14:02:18;24.80;99.90
21648;DHT22;10985;54.182;7.890;2022-09-09T14:04:44;24.80;99.90
21648;DHT22;10985;54.182;7.890;2022-09-09T14:07:14;24.70;99.90
21648;DHT22;10985;54.182;7.890;2022-09-09T14:09:41;24.60;99.90
21648;DHT22;10985;54.182;7.890;2022-09-09T14:12:11;24.50;99.90
21648;DHT22;10985;54.182;7.890;2022-09-09T14:14:37;24.50;99.90
21648;DHT22;10985;54.182;7.890;2022-09-09T14:17:03;24.30;99.90
21648;DHT22;10985;54.182;7.890;2022-09-09T14:19:29;24.20;99.90
21648;DHT22;10985;54.182;7.890;2022-09-09T14:21:54;24.00;99.90
21648;DHT22;10985;54.182;7.890;2022-09-09T14:24:20;23.90;99.90
21648;DHT22;10985;54.182;7.890;2022-09-09T14:26:45;23.70;99.90
21648;DHT22;10985;54.182;7.890;2022-09-09T14:29:11;23.60;99.90
21648;DHT22;10985;54.182;7.890;2022-09-09T14:31:36;23.50;99.90
21648;DHT22;10985;54.182;7.890;2022-09-09T14:34:01;23.30;99.90
21648;DHT22;10985;54.182;7.890;2022-09-09T14:36:27;23.20;99.90
21648;DHT22;10985;54.182;7.890;2022-09-09T14:38:52;23.10;99.90
21648;DHT22;10985;54.182;7.890;2022-09-09T14:41:20;22.90;99.90
21648;DHT22;10985;54.182;7.890;2022-09-09T14:43:47;22.80;99.90
21648;DHT22;10985;54.182;7.890;2022-09-09T14:46:15;22.70;99.90
21648;DHT22;10985;54.182;7.890;2022-09-09T14:48:41;22.60;99.90
21648;DHT22;10985;54.182;7.890;2022-09-09T14:51:17;22.50;99.90
21648;DHT22;10985;54.182;7.890;2022-09-09T14:53:44;22.40;99.90
21648;DHT22;10985;54.182;7.890;2022-09-09T14:56:19;22.30;99.90
21648;DHT22;10985;54.182;7.890;2022-09-09T14:58:45;22.10;99.90
21648;DHT22;10985;54.182;7.890;2022-09-09T15:01:13;21.70;99.90
21648;DHT22;10985;54.182;7.890;2022-09-09T15:03:40;21.50;99.90
21648;DHT22;10985;54.182;7.890;2022-09-09T15:06:15;21.40;99.90
21648;DHT22;10985;54.182;7.890;2022-09-09T15:08:42;21.40;99.90
21648;DHT22;10985;54.182;7.890;2022-09-09T15:11:10;21.30;99.90
21648;DHT22;10985;54.182;7.890;2022-09-09T15:13:38;21.10;99.90
21648;DHT22;10985;54.182;7.890;2022-09-09T15:16:09;21.10;99.90
21648;DHT22;10985;54.182;7.890;2022-09-09T15:18:35;21.00;99.90
21648;DHT22;10985;54.182;7.890;2022-09-09T15:21:04;20.90;99.90
21648;DHT22;10985;54.182;7.890;2022-09-09T15:23:34;20.80;99.90
21648;DHT22;10985;54.182;7.890;2022-09-09T15:26:00;20.90;99.90
21648;DHT22;10985;54.182;7.890;2022-09-09T15:28:25;20.80;99.90
21648;DHT22;10985;54.182;7.890;2022-09-09T15:30:52;20.80;99.90
21648;DHT22;10985;54.182;7.890;2022-09-09T15:33:19;20.80;99.90
21648;DHT22;10985;54.182;7.890;2022-09-09T15:35:44;20.80;99.90
21648;DHT22;10985;54.182;7.890;2022-09-09T15:38:10;20.80;99.90
21648;DHT22;10985;54.182;7.890;2022-09-09T15:40:38;20.60;99.90
21648;DHT22;10985;54.182;7.890;2022-09-09T15:43:05;20.60;99.90
21648;DHT22;10985;54.182;7.890;2022-09-09T15:45:32;20.60;99.90
21648;DHT22;10985;54.182;7.890;2022-09-09T15:48:01;20.50;99.90
21648;DHT22;10985;54.182;7.890;2022-09-09T15:50:27;20.40;99.90
21648;DHT22;10985;54.182;7.890;2022-09-09T15:52:55;20.30;99.90
21648;DHT22;10985;54.182;7.890;2022-09-09T15:55:21;20.20;99.90
21648;DHT22;10985;54.182;7.890;2022-09-09T15:57:46;20.20;99.90
21648;DHT22;10985;54.182;7.890;2022-09-09T16:00:12;20.20;99.90
21648;DHT22;10985;54.182;7.890;2022-09-09T16:02:39;20.10;99.90
21648;DHT22;10985;54.182;7.890;2022-09-09T16:05:05;20.00;99.90
21648;DHT22;10985;54.182;7.890;2022-09-09T16:07:30;20.00;99.90
21648;DHT22;10985;54.182;7.890;2022-09-09T16:09:56;20.00;99.90
21648;DHT22;10985;54.182;7.890;2022-09-09T16:12:21;19.90;99.90
21648;DHT22;10985;54.182;7.890;2022-09-09T16:14:47;19.80;99.90
21648;DHT22;10985;54.182;7.890;2022-09-09T16:17:12;19.80;99.90
21648;DHT22;10985;54.182;7.890;2022-09-09T16:19:39;19.70;99.90
21648;DHT22;10985;54.182;7.890;2022-09-09T16:22:05;19.70;99.90
21648;DHT22;10985;54.182;7.890;2022-09-09T16:24:32;19.60;99.90
21648;DHT22;10985;54.182;7.890;2022-09-09T16:26:58;19.60;99.90
21648;DHT22;10985;54.182;7.890;2022-09-09T16:29:24;19.60;99.90
21648;DHT22;10985;54.182;7.890;2022-09-09T16:31:53;19.50;99.90
21648;DHT22;10985;54.182;7.890;2022-09-09T16:34:19;19.40;99.90
21648;DHT22;10985;54.182;7.890;2022-09-09T16:36:46;19.40;99.90
21648;DHT22;10985;54.182;7.890;2022-09-09T16:39:17;19.40;99.90
21648;DHT22;10985;54.182;7.890;2022-09-09T16:41:44;19.30;99.90
21648;DHT22;10985;54.182;7.890;2022-09-09T16:44:11;19.30;99.90
21648;DHT22;10985;54.182;7.890;2022-09-09T16:46:39;19.30;99.90
21648;DHT22;10985;54.182;7.890;2022-09-09T16:49:07;19.20;99.90
21648;DHT22;10985;54.182;7.890;2022-09-09T16:51:38;19.20;99.90
21648;DHT22;10985;54.182;7.890;2022-09-09T16:54:05;19.20;99.90
21648;DHT22;10985;54.182;7.890;2022-09-09T16:56:34;19.20;99.90
21648;DHT22;10985;54.182;7.890;2022-09-09T16:59:04;19.10;99.90
21648;DHT22;10985;54.182;7.890;2022-09-09T17:01:32;19.10;99.90
21648;DHT22;10985;54.182;7.890;2022-09-09T17:04:02;19.10;99.90
21648;DHT22;10985;54.182;7.890;2022-09-09T17:06:30;19.00;99.90
21648;DHT22;10985;54.182;7.890;2022-09-09T17:08:59;19.00;99.90
21648;DHT22;10985;54.182;7.890;2022-09-09T17:11:27;19.00;99.90
21648;DHT22;10985;54.182;7.890;2022-09-09T17:13:54;18.90;99.90
21648;DHT22;10985;54.182;7.890;2022-09-09T17:16:21;18.90;99.90
21648;DHT22;10985;54.182;7.890;2022-09-09T17:18:48;18.90;99.90
21648;DHT22;10985;54.182;7.890;2022-09-09T17:21:16;18.80;99.90
21648;DHT22;10985;54.182;7.890;2022-09-09T17:23:44;18.80;99.90
21648;DHT22;10985;54.182;7.890;2022-09-09T17:26:12;18.80;99.90
21648;DHT22;10985;54.182;7.890;2022-09-09T17:28:39;18.70;99.90
21648;DHT22;10985;54.182;7.890;2022-09-09T17:31:06;18.70;99.90
21648;DHT22;10985;54.182;7.890;2022-09-09T17:33:38;18.70;99.90
21648;DHT22;10985;54.182;7.890;2022-09-09T17:36:28;18.70;99.90
21648;DHT22;10985;54.182;7.890;2022-09-09T17:38:55;18.70;99.90
21648;DHT22;10985;54.182;7.890;2022-09-09T17:41:24;18.70;99.90
21648;DHT22;10985;54.182;7.890;2022-09-09T17:43:50;18.60;99.90
21648;DHT22;10985;54.182;7.890;2022-09-09T17:46:21;18.60;99.90
21648;DHT22;10985;54.182;7.890;2022-09-09T17:48:49;18.60;99.90
21648;DHT22;10985;54.182;7.890;2022-09-09T17:51:17;18.60;99.90
21648;DHT22;10985;54.182;7.890;2022-09-09T17:53:46;18.60;99.90
21648;DHT22;10985;54.182;7.890;2022-09-09T17:56:15;18.60;99.90
21648;DHT22;10985;54.182;7.890;2022-09-09T17:58:41;18.60;99.90
21648;DHT22;10985;54.182;7.890;2022-09-09T18:01:09;18.60;99.90
21648;DHT22;10985;54.182;7.890;2022-09-09T18:03:37;18.50;99.90
21648;DHT22;10985;54.182;7.890;2022-09-09T18:06:06;18.50;99.90
21648;DHT22;10985;54.182;7.890;2022-09-09T18:08:33;18.50;99.90
21648;DHT22;10985;54.182;7.890;2022-09-09T18:10:59;18.50;99.90
21648;DHT22;10985;54.182;7.890;2022-09-09T18:13:26;18.40;99.90
21648;DHT22;10985;54.182;7.890;2022-09-09T18:15:51;18.40;99.90
21648;DHT22;10985;54.182;7.890;2022-09-09T18:18:18;18.40;99.90
21648;DHT22;10985;54.182;7.890;2022-09-09T18:20:43;18.40;99.90
21648;DHT22;10985;54.182;7.890;2022-09-09T18:23:09;18.30;99.90
21648;DHT22;10985;54.182;7.890;2022-09-09T18:25:40;18.40;99.90
21648;DHT22;10985;54.182;7.890;2022-09-09T18:28:06;18.40;99.90
21648;DHT22;10985;54.182;7.890;2022-09-09T18:30:33;18.30;99.90
21648;DHT22;10985;54.182;7.890;2022-09-09T18:32:58;18.30;99.90
21648;DHT22;10985;54.182;7.890;2022-09-09T18:35:24;18.30;99.90
21648;DHT22;10985;54.182;7.890;2022-09-09T18:37:49;18.30;99.90
21648;DHT22;10985;54.182;7.890;2022-09-09T18:40:16;18.20;99.90
21648;DHT22;10985;54.182;7.890;2022-09-09T18:42:42;18.20;99.90
21648;DHT22;10985;54.182;7.890;2022-09-09T18:45:08;18.20;99.90
21648;DHT22;10985;54.182;7.890;2022-09-09T18:47:33;18.10;99.90
21648;DHT22;10985;54.182;7.890;2022-09-09T18:49:59;18.10;99.90
21648;DHT22;10985;54.182;7.890;2022-09-09T18:52:25;18.10;99.90
21648;DHT22;10985;54.182;7.890;2022-09-09T18:54:51;18.10;99.90
21648;DHT22;10985;54.182;7.890;2022-09-09T18:57:16;18.10;99.90
21648;DHT22;10985;54.182;7.890;2022-09-09T18:59:42;18.10;99.90
21648;DHT22;10985;54.182;7.890;2022-09-09T19:02:09;18.10;99.90
21648;DHT22;10985;54.182;7.890;2022-09-09T19:04:36;18.00;99.90
21648;DHT22;10985;54.182;7.890;2022-09-09T19:07:03;18.00;99.90
21648;DHT22;10985;54.182;7.890;2022-09-09T19:09:30;18.00;99.90
21648;DHT22;10985;54.182;7.890;2022-09-09T19:11:59;18.00;99.90
21648;DHT22;10985;54.182;7.890;2022-09-09T19:14:24;18.00;99.90
21648;DHT22;10985;54.182;7.890;2022-09-09T19:16:50;18.00;99.90
21648;DHT22;10985;54.182;7.890;2022-09-09T19:19:21;17.90;99.90
21648;DHT22;10985;54.182;7.890;2022-09-09T19:21:47;17.90;99.90
21648;DHT22;10985;54.182;7.890;2022-09-09T19:24:18;17.90;99.90
21648;DHT22;10985;54.182;7.890;2022-09-09T19:26:46;17.90;99.90
21648;DHT22;10985;54.182;7.890;2022-09-09T19:29:21;17.90;99.90
21648;DHT22;10985;54.182;7.890;2022-09-09T19:31:47;17.80;99.90
21648;DHT22;10985;54.182;7.890;2022-09-09T19:34:13;17.80;99.90
21648;DHT22;10985;54.182;7.890;2022-09-09T19:36:40;17.80;99.90
21648;DHT22;10985;54.182;7.890;2022-09-09T19:39:06;17.80;99.90
21648;DHT22;10985;54.182;7.890;2022-09-09T19:41:32;17.80;99.90
21648;DHT22;10985;54.182;7.890;2022-09-09T19:44:00;17.80;99.90
21648;DHT22;10985;54.182;7.890;2022-09-09T19:46:32;17.70;99.90
21648;DHT22;10985;54.182;7.890;2022-09-09T19:48:59;17.70;99.90
21648;DHT22;10985;54.182;7.890;2022-09-09T19:51:27;17.70;99.90
21648;DHT22;10985;54.182;7.890;2022-09-09T19:53:56;17.70;99.90
21648;DHT22;10985;54.182;7.890;2022-09-09T19:56:24;17.70;99.90
21648;DHT22;10985;54.182;7.890;2022-09-09T20:01:24;17.60;99.90
21648;DHT22;10985;54.182;7.890;2022-09-09T20:03:51;17.60;99.90
21648;DHT22;10985;54.182;7.890;2022-09-09T20:06:20;17.60;99.90
21648;DHT22;10985;54.182;7.890;2022-09-09T20:08:48;17.60;99.90
21648;DHT22;10985;54.182;7.890;2022-09-09T20:11:15;17.60;99.90
21648;DHT22;10985;54.182;7.890;2022-09-09T20:13:41;17.50;99.90
21648;DHT22;10985;54.182;7.890;2022-09-09T20:16:10;17.60;99.90
21648;DHT22;10985;54.182;7.890;2022-09-09T20:18:41;17.50;99.90
21648;DHT22;10985;54.182;7.890;2022-09-09T20:21:11;17.50;99.90
21648;DHT22;10985;54.182;7.890;2022-09-09T20:23:37;17.50;99.90
21648;DHT22;10985;54.182;7.890;2022-09-09T20:26:05;17.50;99.90
21648;DHT22;10985;54.182;7.890;2022-09-09T20:28:33;17.50;99.90
21648;DHT22;10985;54.182;7.890;2022-09-09T20:31:10;17.50;99.90
21648;DHT22;10985;54.182;7.890;2022-09-09T20:33:37;17.50;99.90
21648;DHT22;10985;54.182;7.890;2022-09-09T20:36:29;17.50;99.90
21648;DHT22;10985;54.182;7.890;2022-09-09T20:38:57;17.50;99.90
21648;DHT22;10985;54.182;7.890;2022-09-09T20:41:26;17.50;99.90
21648;DHT22;10985;54.182;7.890;2022-09-09T20:43:54;17.50;99.90
21648;DHT22;10985;54.182;7.890;2022-09-09T20:46:25;17.50;99.90
21648;DHT22;10985;54.182;7.890;2022-09-09T20:48:51;17.50;99.90
21648;DHT22;10985;54.182;7.890;2022-09-09T20:51:21;17.50;99.90
21648;DHT22;10985;54.182;7.890;2022-09-09T20:53:52;17.40;99.90
21648;DHT22;10985;54.182;7.890;2022-09-09T20:56:19;17.50;99.90
21648;DHT22;10985;54.182;7.890;2022-09-09T20:58:45;17.40;99.90
21648;DHT22;10985;54.182;7.890;2022-09-09T21:01:14;17.40;99.90
21648;DHT22;10985;54.182;7.890;2022-09-09T21:03:40;17.40;99.90
21648;DHT22;10985;54.182;7.890;2022-09-09T21:06:06;17.40;99.90
21648;DHT22;10985;54.182;7.890;2022-09-09T21:08:32;17.40;99.90
21648;DHT22;10985;54.182;7.890;2022-09-09T21:10:59;17.40;99.90
21648;DHT22;10985;54.182;7.890;2022-09-09T21:13:27;17.40;99.90
21648;DHT22;10985;54.182;7.890;2022-09-09T21:15:53;17.40;99.90
21648;DHT22;10985;54.182;7.890;2022-09-09T21:18:19;17.40;99.90
21648;DHT22;10985;54.182;7.890;2022-09-09T21:20:47;17.40;99.90
21648;DHT22;10985;54.182;7.890;2022-09-09T21:23:14;17.40;99.90
21648;DHT22;10985;54.182;7.890;2022-09-09T21:25:40;17.30;99.90
21648;DHT22;10985;54.182;7.890;2022-09-09T21:28:07;17.30;99.90
21648;DHT22;10985;54.182;7.890;2022-09-09T21:30:34;17.30;99.90
21648;DHT22;10985;54.182;7.890;2022-09-09T21:33:00;17.30;99.90
21648;DHT22;10985;54.182;7.890;2022-09-09T21:35:26;17.30;99.90
21648;DHT22;10985;54.182;7.890;2022-09-09T21:37:52;17.30;99.90
21648;DHT22;10985;54.182;7.890;2022-09-09T21:40:18;17.30;99.90
21648;DHT22;10985;54.182;7.890;2022-09-09T21:42:45;17.30;99.90
21648;DHT22;10985;54.182;7.890;2022-09-09T21:45:10;17.30;99.90
21648;DHT22;10985;54.182;7.890;2022-09-09T21:47:36;17.30;99.90
21648;DHT22;10985;54.182;7.890;2022-09-09T21:50:01;17.30;99.90
21648;DHT22;10985;54.182;7.890;2022-09-09T21:52:28;17.30;99.90
21648;DHT22;10985;54.182;7.890;2022-09-09T21:54:53;17.30;99.90
21648;DHT22;10985;54.182;7.890;2022-09-09T21:57:20;17.30;99.90
21648;DHT22;10985;54.182;7.890;2022-09-09T21:59:46;17.30;99.90
21648;DHT22;10985;54.182;7.890;2022-09-09T22:02:11;17.30;99.90
21648;DHT22;10985;54.182;7.890;2022-09-09T22:04:38;17.30;99.90
21648;DHT22;10985;54.182;7.890;2022-09-09T22:07:08;17.20;99.90
21648;DHT22;10985;54.182;7.890;2022-09-09T22:09:34;17.20;99.90
21648;DHT22;10985;54.182;7.890;2022-09-09T22:12:00;17.20;99.90
21648;DHT22;10985;54.182;7.890;2022-09-09T22:14:26;17.30;99.90
21648;DHT22;10985;54.182;7.890;2022-09-09T22:16:51;17.20;99.90
21648;DHT22;10985;54.182;7.890;2022-09-09T22:19:17;17.20;99.90
21648;DHT22;10985;54.182;7.890;2022-09-09T22:21:42;17.20;99.90
21648;DHT22;10985;54.182;7.890;2022-09-09T22:24:08;17.20;99.90
21648;DHT22;10985;54.182;7.890;2022-09-09T22:26:35;17.20;99.90
21648;DHT22;10985;54.182;7.890;2022-09-09T22:29:02;17.10;99.90
21648;DHT22;10985;54.182;7.890;2022-09-09T22:31:29;17.20;99.90
21648;DHT22;10985;54.182;7.890;2022-09-09T22:33:55;17.20;99.90
21648;DHT22;10985;54.182;7.890;2022-09-09T22:36:21;17.10;99.90
21648;DHT22;10985;54.182;7.890;2022-09-09T22:38:47;17.10;99.90
21648;DHT22;10985;54.182;7.890;2022-09-09T22:41:13;17.10;99.90
21648;DHT22;10985;54.182;7.890;2022-09-09T22:43:41;17.10;99.90
21648;DHT22;10985;54.182;7.890;2022-09-09T22:46:07;17.10;99.90
21648;DHT22;10985;54.182;7.890;2022-09-09T22:48:34;17.00;99.90
21648;DHT22;10985;54.182;7.890;2022-09-09T22:51:02;17.00;99.90
21648;DHT22;10985;54.182;7.890;2022-09-09T22:53:28;17.00;99.90
21648;DHT22;10985;54.182;7.890;2022-09-09T22:56:03;16.90;99.90
21648;DHT22;10985;54.182;7.890;2022-09-09T22:58:30;17.00;99.90
21648;DHT22;10985;54.182;7.890;2022-09-09T23:00:57;17.00;99.90
21648;DHT22;10985;54.182;7.890;2022-09-09T23:03:28;17.00;99.90
21648;DHT22;10985;54.182;7.890;2022-09-09T23:05:59;17.00;99.90
21648;DHT22;10985;54.182;7.890;2022-09-09T23:08:29;17.00;99.90
21648;DHT22;10985;54.182;7.890;2022-09-09T23:11:06;17.00;99.90
21648;DHT22;10985;54.182;7.890;2022-09-09T23:13:39;17.00;99.90
21648;DHT22;10985;54.182;7.890;2022-09-09T23:16:14;17.10;99.90
21648;DHT22;10985;54.182;7.890;2022-09-09T23:18:41;17.00;99.90
21648;DHT22;10985;54.182;7.890;2022-09-09T23:21:09;17.00;99.90
21648;DHT22;10985;54.182;7.890;2022-09-09T23:23:36;17.10;99.90
21648;DHT22;10985;54.182;7.890;2022-09-09T23:26:06;17.00;99.90
21648;DHT22;10985;54.182;7.890;2022-09-09T23:28:33;17.00;99.90
21648;DHT22;10985;54.182;7.890;2022-09-09T23:31:00;17.00;99.90
21648;DHT22;10985;54.182;7.890;2022-09-09T23:33:26;17.00;99.90
21648;DHT22;10985;54.182;7.890;2022-09-09T23:36:03;17.00;99.90
21648;DHT22;10985;54.182;7.890;2022-09-09T23:38:32;17.00;99.90
21648;DHT22;10985;54.182;7.890;2022-09-09T23:41:00;17.00;99.90
21648;DHT22;10985;54.182;7.890;2022-09-09T23:43:26;17.00;99.90
21648;DHT22;10985;54.182;7.890;2022-09-09T23:45:52;17.00;99.90
21648;DHT22;10985;54.182;7.890;2022-09-09T23:48:17;17.00;99.90
21648;DHT22;10985;54.182;7.890;2022-09-09T23:50:43;17.00;99.90
21648;DHT22;10985;54.182;7.890;2022-09-09T23:53:09;17.00;99.90
21648;DHT22;10985;54.182;7.890;2022-09-09T23:55:37;16.90;99.90
21648;DHT22;10985;54.182;7.890;2022-09-09T23:58:03;17.00;99.90
